createdAt,value
2019-03-31T00:01:45.728Z,99.90
2019-03-31T00:04:13.540Z,99.90
2019-03-31T00:06:41.323Z,99.90
2019-03-31T00:09:09.409Z,99.90
2019-03-31T00:11:37.234Z,99.90
2019-03-31T00:14:05.029Z,99.90
2019-03-31T00:16:32.842Z,99.90
2019-03-31T00:19:00.632Z,99.90
2019-03-31T00:21:28.433Z,99.90
2019-03-31T00:23:56.228Z,99.90
2019-03-31T00:26:24.144Z,99.90
2019-03-31T00:28:52.022Z,99.90
2019-03-31T00:31:22.267Z,99.90
2019-03-31T00:33:49.592Z,99.90
2019-03-31T00:36:17.366Z,99.90
2019-03-31T00:38:45.128Z,99.90
2019-03-31T00:41:13.033Z,99.90
2019-03-31T00:43:40.815Z,99.90
2019-03-31T00:46:08.723Z,99.90
2019-03-31T00:48:36.544Z,99.90
2019-03-31T00:51:05.410Z,99.90
2019-03-31T00:53:33.270Z,99.90
2019-03-31T00:56:01.055Z,99.90
2019-03-31T00:58:28.888Z,99.90
2019-03-31T01:01:17.185Z,99.90
2019-03-31T01:03:44.963Z,99.90
2019-03-31T01:06:15.151Z,99.90
2019-03-31T01:08:44.285Z,99.90
2019-03-31T01:11:16.678Z,99.90
2019-03-31T01:13:45.736Z,99.90
2019-03-31T01:16:15.830Z,99.90
2019-03-31T01:18:44.470Z,99.90
2019-03-31T01:21:12.315Z,99.90
2019-03-31T01:23:40.159Z,99.90
2019-03-31T01:26:08.316Z,99.90
2019-03-31T01:28:36.100Z,99.90
2019-03-31T01:31:04.023Z,99.90
2019-03-31T01:33:31.922Z,99.90
2019-03-31T01:35:59.880Z,99.90
2019-03-31T01:38:27.663Z,99.90
2019-03-31T01:40:55.451Z,99.90
2019-03-31T01:43:23.262Z,99.90
2019-03-31T01:45:51.138Z,99.90
2019-03-31T01:48:19.055Z,99.90
2019-03-31T01:50:46.871Z,99.90
2019-03-31T01:53:14.655Z,99.90
2019-03-31T01:55:42.434Z,99.90
2019-03-31T01:58:10.214Z,99.90
2019-03-31T02:00:52.236Z,99.90
2019-03-31T02:03:20.011Z,99.90
2019-03-31T02:05:47.816Z,99.90
2019-03-31T02:08:15.615Z,99.90
2019-03-31T02:10:43.397Z,99.90
2019-03-31T02:13:11.192Z,99.90
2019-03-31T02:15:39.006Z,99.90
2019-03-31T02:18:06.916Z,99.90
2019-03-31T02:20:34.735Z,99.90
2019-03-31T02:23:02.506Z,99.90
2019-03-31T02:25:30.298Z,99.90
2019-03-31T02:27:58.079Z,99.90
2019-03-31T02:30:26.088Z,99.90
2019-03-31T02:32:53.888Z,99.90
2019-03-31T02:35:21.800Z,99.90
2019-03-31T02:37:49.600Z,99.90
2019-03-31T02:40:17.471Z,99.90
2019-03-31T02:42:45.283Z,99.90
2019-03-31T02:45:13.074Z,99.90
2019-03-31T02:47:40.940Z,99.90
2019-03-31T02:50:10.853Z,99.90
2019-03-31T02:52:38.664Z,99.90
2019-03-31T02:55:06.469Z,99.90
2019-03-31T02:57:34.553Z,99.90
2019-03-31T03:00:02.473Z,99.90
2019-03-31T03:02:41.426Z,99.90
2019-03-31T03:05:17.465Z,99.90
2019-03-31T03:07:36.576Z,99.90
2019-03-31T03:10:05.491Z,99.90
2019-03-31T03:12:36.559Z,99.90
2019-03-31T03:15:04.977Z,99.90
2019-03-31T03:17:32.857Z,99.90
2019-03-31T03:20:00.716Z,99.90
2019-03-31T03:22:28.565Z,99.90
2019-03-31T03:24:56.466Z,99.90
2019-03-31T03:27:24.343Z,99.90
2019-03-31T03:29:52.141Z,99.90
2019-03-31T03:32:19.960Z,99.90
2019-03-31T03:34:47.898Z,99.90
2019-03-31T03:37:15.744Z,99.90
2019-03-31T03:39:43.687Z,99.90
2019-03-31T03:42:11.552Z,99.90
2019-03-31T03:44:39.440Z,99.90
2019-03-31T03:47:07.264Z,99.90
2019-03-31T03:49:35.139Z,99.90
2019-03-31T03:52:02.931Z,99.90
2019-03-31T03:54:30.932Z,99.90
2019-03-31T03:56:58.712Z,99.90
2019-03-31T03:59:26.496Z,99.90
2019-03-31T04:01:54.446Z,99.90
2019-03-31T04:04:22.329Z,99.90
2019-03-31T04:06:50.297Z,99.90
2019-03-31T04:09:18.141Z,99.90
2019-03-31T04:11:45.942Z,99.90
2019-03-31T04:14:13.764Z,99.90
2019-03-31T04:16:41.643Z,99.90
2019-03-31T04:19:09.544Z,99.90
2019-03-31T04:21:37.413Z,99.90
2019-03-31T04:24:05.326Z,99.90
2019-03-31T04:26:33.112Z,99.90
2019-03-31T04:29:01.065Z,99.90
2019-03-31T04:31:28.962Z,99.90
2019-03-31T04:33:56.895Z,99.90
2019-03-31T04:36:24.664Z,99.90
2019-03-31T04:38:52.461Z,99.90
2019-03-31T04:41:20.357Z,99.90
2019-03-31T04:43:48.263Z,99.90
2019-03-31T04:46:16.075Z,99.90
2019-03-31T04:48:43.855Z,99.90
2019-03-31T04:51:11.687Z,99.90
2019-03-31T04:53:39.542Z,99.90
2019-03-31T04:56:07.324Z,99.90
2019-03-31T04:58:35.125Z,99.90
2019-03-31T05:01:02.903Z,99.90
2019-03-31T05:03:30.716Z,99.90
2019-03-31T05:05:58.503Z,99.90
2019-03-31T05:08:26.301Z,99.90
2019-03-31T05:10:54.130Z,99.90
2019-03-31T05:13:21.895Z,99.90
2019-03-31T05:15:49.686Z,99.90
2019-03-31T05:18:17.561Z,99.90
2019-03-31T05:20:45.457Z,99.90
2019-03-31T05:23:13.247Z,99.90
2019-03-31T05:25:41.078Z,99.90
2019-03-31T05:28:08.858Z,99.90
2019-03-31T05:30:36.683Z,99.90
2019-03-31T05:33:04.692Z,99.90
2019-03-31T05:35:32.471Z,99.90
2019-03-31T05:38:00.263Z,99.90
2019-03-31T05:40:30.679Z,99.90
2019-03-31T05:42:57.860Z,99.90
2019-03-31T05:45:25.699Z,99.90
2019-03-31T05:47:53.489Z,99.90
2019-03-31T05:50:24.575Z,99.90
2019-03-31T05:52:52.364Z,99.90
2019-03-31T05:55:20.201Z,99.90
2019-03-31T05:57:48.037Z,99.90
2019-03-31T06:00:27.787Z,99.90
2019-03-31T06:02:55.567Z,99.90
2019-03-31T06:05:23.343Z,99.90
2019-03-31T06:07:51.144Z,99.90
2019-03-31T06:10:18.914Z,99.90
2019-03-31T06:12:46.695Z,99.90
2019-03-31T06:15:14.513Z,99.90
2019-03-31T06:17:42.355Z,99.90
2019-03-31T06:20:10.255Z,99.90
2019-03-31T06:22:38.147Z,99.90
2019-03-31T06:25:05.965Z,99.90
2019-03-31T06:27:33.751Z,99.90
2019-03-31T06:30:01.596Z,99.90
2019-03-31T06:32:29.383Z,99.90
2019-03-31T06:35:00.374Z,99.90
2019-03-31T06:37:28.146Z,99.90
2019-03-31T06:39:56.415Z,99.90
2019-03-31T06:42:25.993Z,99.90
2019-03-31T06:44:54.993Z,99.90
2019-03-31T06:47:22.866Z,99.90
2019-03-31T06:49:50.834Z,99.90
2019-03-31T06:52:19.112Z,99.90
2019-03-31T06:54:46.983Z,99.90
2019-03-31T06:57:14.767Z,99.90
2019-03-31T06:59:42.908Z,99.90
2019-03-31T07:02:10.940Z,99.90
2019-03-31T07:04:40.112Z,99.90
2019-03-31T07:07:07.925Z,99.90
2019-03-31T07:09:36.253Z,99.90
2019-03-31T07:12:04.651Z,99.90
2019-03-31T07:14:32.796Z,99.90
2019-03-31T07:17:00.755Z,99.90
2019-03-31T07:19:28.561Z,99.90
2019-03-31T07:21:57.711Z,99.90
2019-03-31T07:24:25.699Z,99.90
2019-03-31T07:26:53.527Z,99.90
2019-03-31T07:29:21.528Z,99.90
2019-03-31T07:31:49.443Z,99.90
2019-03-31T07:34:17.390Z,99.90
2019-03-31T07:36:45.353Z,99.90
2019-03-31T07:39:13.189Z,99.90
2019-03-31T07:41:41.266Z,99.90
2019-03-31T07:44:09.430Z,99.90
2019-03-31T07:46:37.281Z,99.90
2019-03-31T07:49:05.117Z,99.90
2019-03-31T07:51:33.126Z,99.90
2019-03-31T07:54:01.119Z,99.90
2019-03-31T07:56:29.075Z,99.90
2019-03-31T07:58:56.982Z,99.90
2019-03-31T08:01:24.935Z,99.90
2019-03-31T08:03:53.047Z,99.90
2019-03-31T08:06:20.994Z,99.90
2019-03-31T08:08:49.003Z,99.90
2019-03-31T08:11:17.341Z,99.90
2019-03-31T08:13:45.381Z,99.90
2019-03-31T08:16:13.243Z,99.90
2019-03-31T08:18:41.156Z,99.90
2019-03-31T08:21:09.144Z,99.90
2019-03-31T08:23:37.043Z,99.90
2019-03-31T08:26:04.915Z,99.90
2019-03-31T08:28:32.861Z,99.90
2019-03-31T08:31:00.941Z,99.90
2019-03-31T08:33:28.900Z,99.90
2019-03-31T08:35:56.878Z,99.90
2019-03-31T08:38:24.851Z,99.90
2019-03-31T08:40:52.852Z,99.90
2019-03-31T08:43:20.834Z,99.90
2019-03-31T08:45:48.756Z,99.90
2019-03-31T08:48:17.110Z,99.90
2019-03-31T08:50:45.075Z,99.90
2019-03-31T08:53:13.057Z,99.90
2019-03-31T08:55:41.153Z,99.90
2019-03-31T08:58:09.117Z,99.90
2019-03-31T09:00:43.956Z,99.90
2019-03-31T09:03:11.809Z,99.90
2019-03-31T09:05:39.651Z,99.90
2019-03-31T09:08:07.486Z,99.90
2019-03-31T09:10:35.462Z,99.90
2019-03-31T09:13:05.227Z,99.90
2019-03-31T09:15:33.112Z,99.90
2019-03-31T09:18:01.388Z,99.90
2019-03-31T09:20:29.271Z,99.90
2019-03-31T09:22:57.408Z,99.90
2019-03-31T09:25:25.244Z,99.90
2019-03-31T09:27:53.123Z,99.90
2019-03-31T09:30:20.941Z,99.90
2019-03-31T09:32:48.844Z,99.90
2019-03-31T09:35:16.638Z,99.90
2019-03-31T09:37:44.452Z,99.90
2019-03-31T09:40:14.059Z,99.40
2019-03-31T09:42:41.891Z,99.30
2019-03-31T09:45:10.319Z,99.30
2019-03-31T09:47:38.718Z,98.90
2019-03-31T09:50:08.263Z,98.80
2019-03-31T09:52:36.131Z,98.30
2019-03-31T09:55:05.113Z,98.20
2019-03-31T09:57:32.915Z,97.20
2019-03-31T10:00:00.863Z,97.20
2019-03-31T10:02:28.675Z,96.70
2019-03-31T10:04:56.550Z,95.80
2019-03-31T10:07:24.551Z,95.70
2019-03-31T10:09:52.444Z,94.60
2019-03-31T10:12:20.315Z,94.50
2019-03-31T10:14:48.273Z,94.60
2019-03-31T10:17:16.141Z,93.70
2019-03-31T10:19:43.925Z,93.20
2019-03-31T10:22:11.778Z,93.30
2019-03-31T10:24:39.643Z,92.50
2019-03-31T10:27:07.609Z,92.50
2019-03-31T10:29:35.524Z,92.40
2019-03-31T10:32:03.359Z,92.50
2019-03-31T10:34:31.175Z,92.40
2019-03-31T10:36:59.138Z,92.20
2019-03-31T10:39:26.989Z,91.90
2019-03-31T10:41:54.868Z,90.90
2019-03-31T10:44:22.681Z,90.60
2019-03-31T10:46:50.723Z,90.40
2019-03-31T10:49:18.543Z,88.20
2019-03-31T10:51:46.353Z,88.10
2019-03-31T10:54:14.336Z,87.90
2019-03-31T10:56:42.144Z,87.60
2019-03-31T10:59:10.173Z,87.30
2019-03-31T11:01:38.239Z,87.10
2019-03-31T11:04:06.118Z,86.90
2019-03-31T11:06:34.230Z,86.50
2019-03-31T11:09:02.267Z,86.10
2019-03-31T11:11:30.130Z,83.60
2019-03-31T11:13:58.059Z,83.20
2019-03-31T11:16:25.950Z,83.30
2019-03-31T11:18:53.864Z,83.30
2019-03-31T11:21:29.620Z,83.20
2019-03-31T11:23:57.421Z,83.00
2019-03-31T11:26:25.208Z,82.90
2019-03-31T11:28:53.055Z,82.20
2019-03-31T11:31:20.851Z,81.00
2019-03-31T11:33:48.669Z,79.30
2019-03-31T11:36:16.449Z,73.40
2019-03-31T11:38:44.251Z,73.00
2019-03-31T11:41:12.077Z,71.90
2019-03-31T11:43:39.919Z,71.20
2019-03-31T11:46:07.715Z,70.10
2019-03-31T11:48:35.521Z,68.80
2019-03-31T11:51:03.303Z,66.30
2019-03-31T11:53:31.114Z,66.30
2019-03-31T11:55:58.907Z,66.60
2019-03-31T11:58:26.715Z,66.70
2019-03-31T12:00:56.083Z,66.70
2019-03-31T12:03:23.859Z,66.70
2019-03-31T12:05:51.663Z,66.80
2019-03-31T12:08:19.456Z,66.80
2019-03-31T12:10:47.235Z,66.40
2019-03-31T12:13:15.052Z,65.60
2019-03-31T12:15:42.916Z,64.30
2019-03-31T12:18:10.856Z,64.20
2019-03-31T12:20:38.668Z,64.10
2019-03-31T12:23:06.447Z,66.80
2019-03-31T12:25:34.303Z,71.70
2019-03-31T12:28:02.090Z,72.80
2019-03-31T12:30:29.911Z,73.00
2019-03-31T12:32:57.856Z,72.10
2019-03-31T12:35:25.695Z,69.90
2019-03-31T12:37:53.915Z,70.10
2019-03-31T12:40:32.315Z,71.60
2019-03-31T12:43:00.193Z,71.90
2019-03-31T12:45:28.095Z,72.10
2019-03-31T12:47:55.995Z,68.50
2019-03-31T12:50:23.863Z,68.20
2019-03-31T12:52:51.668Z,68.00
2019-03-31T12:55:19.584Z,67.80
2019-03-31T12:57:47.485Z,68.00
2019-03-31T13:00:15.535Z,67.40
2019-03-31T13:02:43.431Z,65.90
2019-03-31T13:05:11.335Z,64.00
2019-03-31T13:07:39.371Z,63.30
2019-03-31T13:10:07.304Z,62.50
2019-03-31T13:12:35.333Z,62.90
2019-03-31T13:15:03.361Z,63.50
2019-03-31T13:17:31.258Z,65.80
2019-03-31T13:19:59.073Z,67.40
2019-03-31T13:22:26.872Z,68.20
2019-03-31T13:24:54.821Z,68.70
2019-03-31T13:27:22.638Z,68.60
2019-03-31T13:29:50.430Z,65.40
2019-03-31T13:32:18.300Z,63.20
2019-03-31T13:34:46.237Z,62.90
2019-03-31T13:37:14.091Z,62.20
2019-03-31T13:39:42.211Z,62.50
2019-03-31T13:42:10.123Z,62.70
2019-03-31T13:44:37.921Z,64.30
2019-03-31T13:47:10.024Z,65.40
2019-03-31T13:49:38.813Z,65.80
2019-03-31T13:52:07.747Z,66.20
2019-03-31T13:54:35.542Z,66.40
2019-03-31T13:57:03.634Z,65.90
2019-03-31T13:59:31.691Z,64.50
2019-03-31T14:02:00.321Z,64.00
2019-03-31T14:04:28.616Z,63.00
2019-03-31T14:06:56.398Z,62.50
2019-03-31T14:09:24.215Z,62.30
2019-03-31T14:11:52.060Z,62.00
2019-03-31T14:14:19.867Z,62.00
2019-03-31T14:16:47.676Z,62.10
2019-03-31T14:19:15.487Z,62.40
2019-03-31T14:21:43.470Z,62.70
2019-03-31T14:24:11.357Z,62.60
2019-03-31T14:26:39.243Z,63.20
2019-03-31T14:29:07.501Z,65.10
2019-03-31T14:31:35.493Z,68.90
2019-03-31T14:34:03.292Z,72.70
2019-03-31T14:36:31.604Z,74.70
2019-03-31T14:38:59.517Z,76.50
2019-03-31T14:41:27.422Z,78.40
2019-03-31T14:43:55.287Z,79.90
2019-03-31T14:46:23.103Z,80.50
2019-03-31T14:48:50.954Z,82.90
2019-03-31T14:51:18.888Z,83.30
2019-03-31T14:53:46.827Z,83.30
2019-03-31T14:56:14.613Z,84.70
2019-03-31T14:58:42.419Z,85.00
2019-03-31T15:01:10.183Z,84.30
2019-03-31T15:03:38.049Z,84.50
2019-03-31T15:06:05.995Z,85.20
2019-03-31T15:08:33.856Z,86.10
2019-03-31T15:11:01.667Z,86.50
2019-03-31T15:13:29.479Z,86.60
2019-03-31T15:15:57.343Z,86.80
2019-03-31T15:18:25.119Z,86.80
2019-03-31T15:20:53.007Z,87.20
2019-03-31T15:23:29.003Z,89.00
2019-03-31T15:25:50.663Z,90.30
2019-03-31T15:28:18.472Z,90.60
2019-03-31T15:30:46.630Z,90.90
2019-03-31T15:33:14.531Z,91.30
2019-03-31T15:35:42.695Z,93.30
2019-03-31T15:38:10.555Z,93.50
2019-03-31T15:40:38.335Z,93.60
2019-03-31T15:43:06.281Z,94.40
2019-03-31T15:45:34.183Z,94.50
2019-03-31T15:48:01.971Z,94.70
2019-03-31T15:50:30.096Z,94.90
2019-03-31T15:52:58.051Z,96.00
2019-03-31T15:55:25.999Z,96.50
2019-03-31T15:57:54.333Z,96.60
2019-03-31T16:00:22.251Z,96.90
2019-03-31T16:02:50.110Z,96.90
2019-03-31T16:05:17.915Z,96.90
2019-03-31T16:07:46.071Z,97.00
2019-03-31T16:10:16.486Z,97.10
2019-03-31T16:12:43.898Z,97.30
2019-03-31T16:15:12.007Z,97.50
2019-03-31T16:17:39.348Z,97.70
2019-03-31T16:20:07.270Z,97.80
2019-03-31T16:22:34.608Z,98.00
2019-03-31T16:25:03.467Z,98.30
2019-03-31T16:27:30.699Z,98.40
2019-03-31T16:29:57.992Z,98.70
2019-03-31T16:32:25.311Z,98.80
2019-03-31T16:34:52.551Z,99.10
2019-03-31T16:37:19.995Z,99.20
2019-03-31T16:39:47.310Z,99.30
2019-03-31T16:42:14.560Z,99.70
2019-03-31T16:44:41.805Z,99.90
2019-03-31T16:47:09.063Z,99.90
2019-03-31T16:49:36.301Z,99.90
2019-03-31T16:52:03.712Z,99.90
2019-03-31T16:54:31.062Z,99.90
2019-03-31T16:56:58.442Z,99.90
2019-03-31T16:59:25.841Z,99.90
2019-03-31T17:01:53.367Z,99.90
2019-03-31T17:04:20.731Z,99.90
2019-03-31T17:06:48.124Z,99.90
2019-03-31T17:09:15.409Z,99.90
2019-03-31T17:11:43.006Z,99.90
2019-03-31T17:14:10.627Z,99.90
2019-03-31T17:16:38.030Z,99.90
2019-03-31T17:19:05.580Z,99.90
2019-03-31T17:21:32.925Z,99.90
2019-03-31T17:24:00.593Z,99.90
2019-03-31T17:26:28.480Z,99.90
2019-03-31T17:28:57.167Z,99.90
2019-03-31T17:31:24.777Z,99.90
2019-03-31T17:33:52.334Z,99.90
2019-03-31T17:36:19.840Z,99.90
2019-03-31T17:38:47.809Z,99.90
2019-03-31T17:41:15.345Z,99.90
2019-03-31T17:43:45.863Z,99.90
2019-03-31T17:46:13.635Z,99.90
2019-03-31T17:48:40.943Z,99.90
2019-03-31T17:51:08.663Z,99.90
2019-03-31T17:53:36.979Z,99.90
2019-03-31T17:56:04.441Z,99.90
2019-03-31T17:58:31.983Z,99.90
2019-03-31T18:00:59.938Z,99.90
2019-03-31T18:03:27.644Z,99.90
2019-03-31T18:05:56.496Z,99.90
2019-03-31T18:08:23.815Z,99.90
2019-03-31T18:10:51.588Z,99.90
2019-03-31T18:13:19.002Z,99.90
2019-03-31T18:15:46.664Z,99.90
2019-03-31T18:18:14.096Z,99.90
2019-03-31T18:20:41.926Z,99.90
2019-03-31T18:23:09.487Z,99.90
2019-03-31T18:25:36.973Z,99.90
2019-03-31T18:28:04.702Z,99.90
2019-03-31T18:30:36.550Z,99.90
2019-03-31T18:33:04.257Z,99.90
2019-03-31T18:35:32.022Z,99.90
2019-03-31T18:37:59.554Z,99.90
2019-03-31T18:40:34.871Z,99.90
2019-03-31T18:42:56.368Z,99.90
2019-03-31T18:45:23.897Z,99.90
2019-03-31T18:47:51.399Z,99.90
2019-03-31T18:50:18.826Z,99.90
2019-03-31T18:52:46.870Z,99.90
2019-03-31T18:55:38.418Z,99.90
2019-03-31T18:58:17.018Z,99.90
2019-03-31T19:00:59.145Z,99.90
2019-03-31T19:03:44.770Z,99.90
2019-03-31T19:06:22.259Z,99.90
2019-03-31T19:09:08.535Z,99.90
2019-03-31T19:12:13.834Z,99.90
2019-03-31T19:15:06.890Z,99.90
2019-03-31T19:18:12.643Z,99.90
2019-03-31T19:20:49.172Z,99.90
2019-03-31T19:23:34.830Z,99.90
2019-03-31T19:26:19.840Z,99.90
2019-03-31T19:28:57.540Z,99.90
2019-03-31T19:31:50.452Z,99.90
2019-03-31T19:34:35.753Z,99.90
2019-03-31T19:37:15.810Z,99.90
2019-03-31T19:40:02.572Z,99.90
2019-03-31T19:42:55.401Z,99.90
2019-03-31T19:45:35.515Z,99.90
2019-03-31T19:48:15.061Z,99.90
2019-03-31T19:51:13.811Z,99.90
2019-03-31T19:53:48.736Z,99.90
2019-03-31T19:56:44.550Z,99.90
2019-03-31T19:59:31.329Z,99.90
2019-03-31T20:02:10.146Z,99.90
2019-03-31T20:05:01.814Z,99.90
2019-03-31T20:07:51.680Z,99.90
2019-03-31T20:10:33.950Z,99.90
2019-03-31T20:13:32.013Z,99.90
2019-03-31T20:16:18.934Z,99.90
2019-03-31T20:19:11.666Z,99.90
2019-03-31T20:22:07.140Z,99.90
2019-03-31T20:25:06.543Z,99.90
2019-03-31T20:27:46.676Z,99.90
2019-03-31T20:30:43.122Z,99.90
2019-03-31T20:33:20.330Z,99.90
2019-03-31T20:36:01.144Z,99.90
2019-03-31T20:38:38.640Z,99.90
2019-03-31T20:41:35.374Z,99.90
2019-03-31T20:44:02.949Z,99.90
2019-03-31T20:46:30.538Z,99.90
2019-03-31T20:48:57.934Z,99.90
2019-03-31T20:51:25.544Z,99.90
2019-03-31T20:53:52.948Z,99.90
2019-03-31T20:56:20.407Z,99.90
2019-03-31T20:58:48.558Z,99.90
2019-03-31T21:01:16.357Z,99.90
2019-03-31T21:03:43.741Z,99.90
2019-03-31T21:06:11.100Z,99.90
2019-03-31T21:08:38.445Z,99.90
2019-03-31T21:11:05.735Z,99.90
2019-03-31T21:13:33.087Z,99.90
2019-03-31T21:16:00.627Z,99.90
2019-03-31T21:18:27.958Z,99.90
2019-03-31T21:20:55.407Z,99.90
2019-03-31T21:23:22.792Z,99.90
2019-03-31T21:25:50.162Z,99.90
2019-03-31T21:28:20.763Z,99.90
2019-03-31T21:30:48.156Z,99.90
2019-03-31T21:33:16.882Z,99.90
2019-03-31T21:35:44.555Z,99.90
2019-03-31T21:38:12.570Z,99.90
2019-03-31T21:40:43.043Z,99.90
2019-03-31T21:43:10.329Z,99.90
2019-03-31T21:45:37.649Z,99.90
2019-03-31T21:48:04.983Z,99.90
2019-03-31T21:50:32.232Z,99.90
2019-03-31T21:52:59.594Z,99.90
2019-03-31T21:55:27.308Z,99.90
2019-03-31T21:57:54.811Z,99.90
2019-03-31T22:00:37.993Z,99.90
2019-03-31T22:03:05.516Z,99.90
2019-03-31T22:05:32.855Z,99.90
2019-03-31T22:08:03.716Z,99.90
2019-03-31T22:10:29.371Z,99.90
2019-03-31T22:12:56.620Z,99.90
2019-03-31T22:15:24.392Z,99.90
2019-03-31T22:17:51.643Z,99.90
2019-03-31T22:20:18.898Z,99.90
2019-03-31T22:22:46.251Z,99.90
2019-03-31T22:25:13.500Z,99.90
2019-03-31T22:27:40.772Z,99.90
2019-03-31T22:30:08.124Z,99.90
2019-03-31T22:32:35.342Z,99.90
2019-03-31T22:35:02.621Z,99.90
2019-03-31T22:37:29.993Z,99.90
2019-03-31T22:39:57.229Z,99.90
2019-03-31T22:42:24.480Z,99.90
2019-03-31T22:44:51.706Z,99.90
2019-03-31T22:47:19.048Z,99.90
2019-03-31T22:49:46.284Z,99.90
2019-03-31T22:52:13.554Z,99.90
2019-03-31T22:54:40.815Z,99.90
2019-03-31T22:57:09.172Z,99.90
2019-03-31T22:59:36.479Z,99.90
2019-03-31T23:02:03.874Z,99.90
2019-03-31T23:04:31.185Z,99.90
2019-03-31T23:06:58.436Z,99.90
2019-03-31T23:09:25.779Z,99.90
2019-03-31T23:11:53.079Z,99.90
2019-03-31T23:14:20.311Z,99.90
2019-03-31T23:16:47.545Z,99.90
2019-03-31T23:19:14.790Z,99.90
2019-03-31T23:21:42.124Z,99.90
2019-03-31T23:24:09.480Z,99.90
2019-03-31T23:26:36.819Z,99.90
2019-03-31T23:29:04.059Z,99.90
2019-03-31T23:31:31.271Z,99.90
2019-03-31T23:33:58.492Z,99.90
2019-03-31T23:36:25.735Z,99.90
2019-03-31T23:38:53.363Z,99.90
2019-03-31T23:41:20.583Z,99.90
2019-03-31T23:43:47.829Z,99.90
2019-03-31T23:46:15.063Z,99.90
2019-03-31T23:48:42.324Z,99.90
2019-03-31T23:51:09.567Z,99.90
2019-03-31T23:53:36.800Z,99.90
2019-03-31T23:56:04.032Z,99.90
2019-03-31T23:58:31.281Z,99.90
